^^
Station Historical Data
Daily Summary for December 07, 2017 Units:  English    Metric   Both
« Previous Day
Next Day »
Daily Weekly Monthly Yearly Custom
  High: Low: Average:
Temperature: 41.7 °F 27.8 °F 34.6 °F
Dew Point: 29.1 °F 21.7 °F 24.2 °F
Humidity: 78 % 50 % 66 %
Wind Speed: 11.1 mph 0.0 mph 1.5 mph
Wind Gust: 20.7 mph - -
Wind:- - WSW
Pressure: 30.10 in 29.99 in -
Precipitation: 0.00 in    
Historical Graphs
 
 
Tabular Data for December 07, 2017
Time Temperature Dew Point Pressure Wind Wind Speed Wind Gust Humidity Rainfall Rate (Hourly) solar Conditions
00:00 29.3 °F 23.3 °F 30.02 in Calm     78 % 0.00 in 0.0 W/m2 CLR
00:05 29.2 °F 23.2 °F 30.02 in Calm     78 % 0.00 in 0.0 W/m2 RA
00:10 29.1 °F 23.1 °F 30.02 in Calm     78 % 0.00 in 0.0 W/m2 RA
00:14 29.2 °F 23.2 °F 30.02 in Calm     78 % 0.00 in 0.0 W/m2 CLR
00:19 29.4 °F 23.4 °F 30.02 in Calm     78 % 0.00 in 0.0 W/m2 CLR
00:24 29.6 °F 23.6 °F 30.02 in Calm     78 % 0.00 in 0.0 W/m2 BKN
00:29 29.5 °F 23.2 °F 30.02 in Calm     77 % 0.00 in 0.0 W/m2 BKN
00:34 29.5 °F 23.2 °F 30.02 in Calm     77 % 0.00 in 0.0 W/m2 BKN
00:39 29.4 °F 23.1 °F 30.02 in Calm     77 % 0.00 in 0.0 W/m2 BKN
00:44 29.5 °F 23.2 °F 30.02 in Calm     77 % 0.00 in 0.0 W/m2 BKN
00:50 29.7 °F 23.4 °F 30.02 in Calm     77 % 0.00 in 0.0 W/m2 BKN
00:55 30.2 °F 23.5 °F 30.02 in Calm     76 % 0.00 in 0.0 W/m2 BKN
01:00 30.7 °F 23.7 °F 30.02 in WSW 0.1 mph 3.5 mph 75 % 0.00 in 0.0 W/m2 BKN
01:05 31.1 °F 23.8 °F 30.01 in WSW 0.7 mph 5.8 mph 74 % 0.00 in 0.0 W/m2 CLR
01:10 31.4 °F 23.4 °F 30.02 in SW 0.4 mph 5.8 mph 72 % 0.00 in 0.0 W/m2 CLR
01:15 31.6 °F 23.6 °F 30.02 in SW 2.4 mph 5.8 mph 72 % 0.00 in 0.0 W/m2 CLR
01:20 31.8 °F 23.5 °F 30.02 in WSW 3.1 mph 4.6 mph 71 % 0.00 in 0.0 W/m2 CLR
01:25 31.8 °F 23.1 °F 30.02 in WSW 1.3 mph 4.6 mph 70 % 0.00 in 0.0 W/m2 CLR
01:30 31.8 °F 23.1 °F 30.02 in SW 0.8 mph 6.9 mph 70 % 0.00 in 0.0 W/m2 CLR
01:35 31.8 °F 23.1 °F 30.02 in SW 0.7 mph 6.9 mph 70 % 0.00 in 0.0 W/m2 CLR
01:40 31.8 °F 23.1 °F 30.02 in Calm   3.5 mph 70 % 0.00 in 0.0 W/m2 CLR
01:45 31.3 °F 22.6 °F 30.02 in SW 0.7 mph 3.5 mph 70 % 0.00 in 0.0 W/m2 CLR
01:50 31.0 °F 22.7 °F 30.02 in Calm   3.0 mph 71 % 0.00 in 0.0 W/m2 CLR
01:55 31.0 °F 22.7 °F 30.02 in SW 1.0 mph 4.0 mph 71 % 0.00 in 0.0 W/m2 CLR
02:00 31.0 °F 22.7 °F 30.02 in SW 0.2 mph 3.5 mph 71 % 0.00 in 0.0 W/m2 CLR
02:05 31.1 °F 22.8 °F 30.02 in Calm   4.0 mph 71 % 0.00 in 0.0 W/m2 CLR
02:10 31.0 °F 22.7 °F 30.02 in Calm   4.0 mph 71 % 0.00 in 0.0 W/m2 CLR
02:15 30.8 °F 22.8 °F 30.02 in Calm   3.5 mph 72 % 0.00 in 0.0 W/m2 CLR
02:20 30.6 °F 22.6 °F 30.02 in WSW 1.0 mph 4.0 mph 72 % 0.00 in 0.0 W/m2 CLR
02:23 30.6 °F 22.6 °F 30.03 in WSW 1.5 mph 3.5 mph 72 % 0.00 in 0.0 W/m2 CLR
02:28 30.8 °F 22.8 °F 30.02 in WSW 0.5 mph 6.9 mph 72 % 0.00 in 0.0 W/m2 CLR
02:33 30.8 °F 22.8 °F 30.02 in WSW 0.7 mph 6.9 mph 72 % 0.00 in 0.0 W/m2 CLR
02:38 30.8 °F 22.8 °F 30.02 in WSW 0.4 mph 3.5 mph 72 % 0.00 in 0.0 W/m2 CLR
02:43 30.8 °F 22.8 °F 30.03 in Calm   3.5 mph 72 % 0.00 in 0.0 W/m2 CLR
02:48 30.6 °F 22.6 °F 30.02 in WSW 0.8 mph 3.5 mph 72 % 0.00 in 0.0 W/m2 CLR
02:53 30.4 °F 22.4 °F 30.02 in WSW 1.4 mph 3.5 mph 72 % 0.00 in 0.0 W/m2 CLR
02:58 30.2 °F 22.3 °F 30.02 in Calm   3.5 mph 72 % 0.00 in 0.0 W/m2 CLR
03:03 30.1 °F 22.5 °F 30.02 in WSW 0.7 mph 3.5 mph 73 % 0.00 in 0.0 W/m2 CLR
03:08 30.3 °F 22.7 °F 30.02 in Calm   4.6 mph 73 % 0.00 in 0.0 W/m2 CLR
03:13 30.4 °F 22.4 °F 30.02 in SW 1.8 mph 6.9 mph 72 % 0.00 in 0.0 W/m2 CLR
03:18 30.4 °F 22.4 °F 30.02 in WSW 1.4 mph 6.9 mph 72 % 0.00 in 0.0 W/m2 CLR
03:23 30.4 °F 22.4 °F 30.02 in WSW 1.6 mph 6.9 mph 72 % 0.00 in 0.0 W/m2 CLR
03:28 30.3 °F 22.4 °F 30.02 in WSW 0.2 mph 3.5 mph 72 % 0.00 in 0.0 W/m2 CLR
03:33 30.2 °F 22.3 °F 30.02 in WSW 0.4 mph 3.5 mph 72 % 0.00 in 0.0 W/m2 CLR
03:38 30.2 °F 22.6 °F 30.02 in WSW 1.0 mph 3.5 mph 73 % 0.00 in 0.0 W/m2 CLR
03:43 30.2 °F 22.3 °F 30.02 in WSW 1.8 mph 4.6 mph 72 % 0.00 in 0.0 W/m2 CLR
03:48 30.3 °F 22.4 °F 30.01 in SW 1.3 mph 4.6 mph 72 % 0.00 in 0.0 W/m2 CLR
03:53 30.2 °F 22.3 °F 30.02 in Calm   4.6 mph 72 % 0.00 in 0.0 W/m2 CLR
03:58 30.1 °F 22.5 °F 30.02 in SW 0.5 mph 3.5 mph 73 % 0.00 in 0.0 W/m2 CLR
04:03 29.9 °F 22.3 °F 30.02 in SW 0.6 mph 3.5 mph 73 % 0.00 in 0.0 W/m2 CLR
04:08 29.7 °F 22.4 °F 30.02 in Calm   3.5 mph 74 % 0.00 in 0.0 W/m2 CLR
04:13 29.6 °F 22.3 °F 30.02 in SW 1.2 mph 3.5 mph 74 % 0.00 in 0.0 W/m2 CLR
04:18 29.5 °F 22.2 °F 30.02 in SW 1.3 mph 3.5 mph 74 % 0.00 in 0.0 W/m2 CLR
04:23 29.3 °F 22.0 °F 30.02 in SW 1.9 mph 3.5 mph 74 % 0.00 in 0.0 W/m2 CLR
04:28 29.2 °F 22.3 °F 30.02 in SW 1.8 mph 3.5 mph 75 % 0.00 in 0.0 W/m2 CLR
04:33 29.1 °F 22.2 °F 30.02 in SW 2.0 mph 3.5 mph 75 % 0.00 in 0.0 W/m2 CLR
04:38 29.0 °F 22.1 °F 30.02 in SW 3.0 mph 3.5 mph 75 % 0.00 in 0.0 W/m2 CLR
04:43 29.0 °F 22.1 °F 30.02 in SW 1.0 mph 4.6 mph 75 % 0.00 in 0.0 W/m2 CLR
04:48 29.0 °F 22.4 °F 30.02 in SW 2.1 mph 4.6 mph 76 % 0.00 in 0.0 W/m2 CLR
04:53 29.0 °F 22.4 °F 30.02 in SSW 1.7 mph 4.6 mph 76 % 0.00 in 0.0 W/m2 CLR
04:58 28.9 °F 22.3 °F 30.02 in SSW 2.0 mph 4.6 mph 76 % 0.00 in 0.0 W/m2 CLR
05:03 28.8 °F 22.2 °F 30.02 in SSW 1.9 mph 4.6 mph 76 % 0.00 in 0.0 W/m2 CLR
05:08 28.8 °F 22.2 °F 30.02 in Calm   4.6 mph 76 % 0.00 in 0.0 W/m2 CLR
05:13 28.6 °F 22.0 °F 30.02 in Calm   3.5 mph 76 % 0.00 in 0.0 W/m2 CLR
05:18 28.5 °F 22.2 °F 30.02 in Calm     77 % 0.00 in 0.0 W/m2 CLR
05:23 28.5 °F 22.2 °F 30.02 in Calm     77 % 0.00 in 0.0 W/m2 CLR
05:28 28.4 °F 22.1 °F 30.03 in Calm     77 % 0.00 in 0.0 W/m2 CLR
05:33 28.2 °F 21.9 °F 30.03 in Calm     77 % 0.00 in 0.0 W/m2 CLR
05:38 28.0 °F 21.7 °F 30.03 in Calm     77 % 0.00 in 0.0 W/m2 CLR
05:43 27.8 °F 21.8 °F 30.04 in Calm     78 % 0.00 in 0.0 W/m2 CLR
05:48 27.8 °F 21.8 °F 30.04 in Calm     78 % 0.00 in 0.0 W/m2 CLR
05:53 27.8 °F 21.8 °F 30.04 in SW 0.6 mph 3.5 mph 78 % 0.00 in 0.0 W/m2 CLR
05:58 28.0 °F 22.0 °F 30.04 in Calm   3.5 mph 78 % 0.00 in 0.0 W/m2 CLR
06:03 28.1 °F 22.1 °F 30.04 in Calm   4.6 mph 78 % 0.00 in 0.0 W/m2 CLR
06:08 28.5 °F 22.5 °F 30.04 in WSW 1.7 mph 6.9 mph 78 % 0.00 in 0.0 W/m2 CLR
06:13 28.8 °F 22.8 °F 30.04 in West 2.5 mph 6.9 mph 78 % 0.00 in 0.0 W/m2 CLR
06:18 29.0 °F 23.0 °F 30.05 in WSW 2.3 mph 6.9 mph 78 % 0.00 in 0.0 W/m2 CLR
06:23 29.1 °F 22.8 °F 30.05 in WSW 0.7 mph 6.9 mph 77 % 0.00 in 0.0 W/m2 CLR
06:28 29.0 °F 22.7 °F 30.05 in SW 1.7 mph 5.8 mph 77 % 0.00 in 0.0 W/m2 CLR
06:33 28.8 °F 22.5 °F 30.04 in SW 1.7 mph 5.8 mph 77 % 0.00 in 0.0 W/m2 CLR
06:38 28.9 °F 22.6 °F 30.05 in SW 2.1 mph 5.8 mph 77 % 0.00 in 0.0 W/m2 CLR
06:43 28.9 °F 22.6 °F 30.05 in SW 0.6 mph 4.6 mph 77 % 0.00 in 0.0 W/m2 CLR
06:48 28.9 °F 22.6 °F 30.05 in West 0.2 mph 4.6 mph 77 % 0.00 in 0.0 W/m2 CLR
06:53 29.0 °F 22.4 °F 30.05 in WSW 0.6 mph 4.6 mph 76 % 0.00 in 0.0 W/m2 CLR
06:58 29.0 °F 22.4 °F 30.05 in Calm   3.5 mph 76 % 0.00 in 0.0 W/m2 CLR
07:03 29.1 °F 22.5 °F 30.05 in West 0.3 mph 3.5 mph 76 % 0.00 in 0.0 W/m2 CLR
07:08 29.2 °F 22.6 °F 30.05 in West 0.7 mph 5.8 mph 76 % 0.00 in 0.0 W/m2 CLR
07:13 29.5 °F 22.9 °F 30.05 in WSW 1.2 mph 5.8 mph 76 % 0.00 in 0.0 W/m2 CLR
07:18 29.5 °F 22.6 °F 30.05 in WSW 0.5 mph 5.8 mph 75 % 0.00 in 5.0 W/m2 CLR
07:23 29.6 °F 22.6 °F 30.06 in West 1.2 mph 3.5 mph 75 % 0.00 in 7.0 W/m2 CLR
07:28 29.5 °F 22.6 °F 30.05 in West 0.9 mph 3.5 mph 75 % 0.00 in 11.0 W/m2 CLR
07:34 29.3 °F 22.4 °F 30.06 in Calm   3.5 mph 75 % 0.00 in 12.0 W/m2 CLR
07:39 29.3 °F 22.4 °F 30.05 in Calm   3.5 mph 75 % 0.00 in 14.0 W/m2 CLR
07:44 29.3 °F 22.4 °F 30.06 in Calm   3.5 mph 75 % 0.00 in 16.0 W/m2 CLR
07:49 29.5 °F 22.6 °F 30.06 in West 0.1 mph 3.5 mph 75 % 0.00 in 19.0 W/m2 CLR
07:54 29.7 °F 22.7 °F 30.06 in Calm   3.5 mph 75 % 0.00 in 19.0 W/m2 CLR
07:59 29.8 °F 22.8 °F 30.06 in West 2.5 mph 5.8 mph 75 % 0.00 in 21.0 W/m2 CLR
08:04 30.1 °F 23.1 °F 30.06 in WSW 0.6 mph 5.8 mph 75 % 0.00 in 33.0 W/m2 CLR
08:09 30.3 °F 23.0 °F 30.07 in WSW 0.7 mph 5.8 mph 74 % 0.00 in 32.0 W/m2 CLR
08:14 30.6 °F 23.3 °F 30.07 in West 0.1 mph 3.5 mph 74 % 0.00 in 28.0 W/m2 CLR
08:19 30.9 °F 23.3 °F 30.07 in WSW 0.3 mph 3.5 mph 73 % 0.00 in 35.0 W/m2 CLR
08:24 31.2 °F 23.2 °F 30.07 in Calm   3.5 mph 72 % 0.00 in 30.0 W/m2 CLR
08:29 31.5 °F 23.5 °F 30.07 in Calm   2.3 mph 72 % 0.00 in 84.0 W/m2 CLR
08:34 31.8 °F 23.5 °F 30.08 in SW 1.6 mph 3.5 mph 71 % 0.00 in 144.0 W/m2 CLR
08:39 32.0 °F 23.7 °F 30.08 in Calm   3.5 mph 71 % 0.00 in 104.0 W/m2 CLR
08:44 32.0 °F 23.7 °F 30.08 in WSW 0.2 mph 3.5 mph 71 % 0.00 in 104.0 W/m2 CLR
08:49 32.1 °F 23.8 °F 30.08 in Calm   2.3 mph 71 % 0.00 in 93.0 W/m2 CLR
08:54 32.3 °F 23.6 °F 30.08 in Calm   2.3 mph 70 % 0.00 in 86.0 W/m2 CLR
08:59 32.3 °F 23.6 °F 30.08 in Calm   3.5 mph 70 % 0.00 in 98.0 W/m2 CLR
09:04 32.5 °F 24.1 °F 30.08 in Calm   3.5 mph 71 % 0.00 in 132.0 W/m2 CLR
09:09 32.8 °F 24.1 °F 30.08 in Calm   3.5 mph 70 % 0.00 in 142.0 W/m2 CLR
09:11 32.9 °F 24.2 °F 30.08 in Calm   3.5 mph 70 % 0.00 in 178.0 W/m2 CLR
09:16 33.4 °F 24.3 °F 30.08 in SW 0.1 mph 3.5 mph 69 % 0.00 in 153.0 W/m2 CLR
09:21 33.6 °F 24.2 °F 30.08 in SW 1.7 mph 5.8 mph 68 % 0.00 in 195.0 W/m2 CLR
09:36 35.0 °F 24.4 °F 30.09 in SW 2.2 mph 8.1 mph 65 % 0.00 in 169.0 W/m2 CLR
09:41 35.1 °F 24.1 °F 30.09 in SW 2.3 mph 6.9 mph 64 % 0.00 in 169.0 W/m2 CLR
09:51 35.3 °F 24.3 °F 30.09 in WSW 0.9 mph 8.1 mph 64 % 0.00 in 163.0 W/m2 CLR
09:56 35.4 °F 24.4 °F 30.09 in West 2.3 mph 8.1 mph 64 % 0.00 in 172.0 W/m2 CLR
10:01 35.4 °F 24.4 °F 30.09 in West 2.2 mph 8.1 mph 64 % 0.00 in 181.0 W/m2 CLR
10:06 35.5 °F 24.1 °F 30.09 in SW 2.7 mph 8.1 mph 63 % 0.00 in 178.0 W/m2 BKN
10:11 35.6 °F 24.2 °F 30.10 in West 2.3 mph 6.9 mph 63 % 0.00 in 151.0 W/m2 BKN
10:21 35.7 °F 23.9 °F 30.10 in WSW 7.7 mph 8.1 mph 62 % 0.00 in 141.0 W/m2 BKN
10:31 35.8 °F 24.0 °F 30.09 in WSW 4.6 mph 11.5 mph 62 % 0.00 in 144.0 W/m2 BKN
10:36 36.0 °F 24.2 °F 30.09 in WSW 0.6 mph 11.5 mph 62 % 0.00 in 139.0 W/m2 BKN
10:46 36.2 °F 24.4 °F 30.09 in WSW 2.0 mph 9.2 mph 62 % 0.00 in 134.0 W/m2 BKN
10:51 36.2 °F 24.4 °F 30.09 in SW 1.1 mph 11.5 mph 62 % 0.00 in 148.0 W/m2 BKN
10:56 36.3 °F 24.5 °F 30.08 in WSW 2.4 mph 11.5 mph 62 % 0.00 in 158.0 W/m2 BKN
11:01 36.5 °F 24.7 °F 30.08 in SW 1.0 mph 11.5 mph 62 % 0.00 in 160.0 W/m2 OVC
11:06 36.6 °F 24.8 °F 30.08 in SW 0.5 mph 11.5 mph 62 % 0.00 in 195.0 W/m2 OVC
11:11 36.9 °F 24.7 °F 30.08 in SW 3.3 mph 5.8 mph 61 % 0.00 in 241.0 W/m2 OVC
11:21 37.8 °F 25.1 °F 30.07 in SSW 3.5 mph 10.4 mph 60 % 0.00 in 408.0 W/m2 OVC
11:26 38.4 °F 24.9 °F 30.07 in WSW 4.8 mph 12.7 mph 58 % 0.00 in 246.0 W/m2 OVC
11:31 38.3 °F 24.8 °F 30.07 in WNW 2.0 mph 12.7 mph 58 % 0.00 in 237.0 W/m2 OVC
11:36 38.2 °F 24.3 °F 30.06 in WSW 9.2 mph 16.1 mph 57 % 0.00 in 279.0 W/m2 OVC
11:41 38.5 °F 24.6 °F 30.06 in WSW 3.3 mph 16.1 mph 57 % 0.00 in 281.0 W/m2 OVC
11:46 38.7 °F 24.3 °F 30.06 in WSW 10.9 mph 16.1 mph 56 % 0.00 in 454.0 W/m2 OVC
12:01 39.0 °F 24.2 °F 30.05 in WSW 8.1 mph 20.7 mph 55 % 0.00 in 475.0 W/m2 BKN
12:06 39.3 °F 24.5 °F 30.05 in WSW 10.1 mph 20.7 mph 55 % 0.00 in 446.0 W/m2 BKN
12:11 39.9 °F 25.0 °F 30.04 in WSW 0.3 mph 17.3 mph 55 % 0.00 in 446.0 W/m2 BKN
12:16 39.9 °F 24.6 °F 30.04 in SSW 3.9 mph 17.3 mph 54 % 0.00 in 448.0 W/m2 BKN
12:21 39.8 °F 24.9 °F 30.04 in WSW 3.3 mph 16.1 mph 55 % 0.00 in 445.0 W/m2 BKN
12:31 39.7 °F 24.0 °F 30.03 in SSW 9.1 mph 16.1 mph 53 % 0.00 in 441.0 W/m2 BKN
12:36 40.0 °F 24.2 °F 30.03 in SW 8.5 mph 16.1 mph 53 % 0.00 in 445.0 W/m2 BKN
12:37 40.0 °F 24.2 °F 30.03 in SW 8.1 mph 16.1 mph 53 % 0.00 in 445.0 W/m2 BKN
12:42 40.4 °F 24.1 °F 30.03 in SW 3.5 mph 16.1 mph 52 % 0.00 in 443.0 W/m2 BKN
12:47 40.5 °F 23.8 °F 30.03 in West 11.1 mph 16.1 mph 51 % 0.00 in 431.0 W/m2 BKN
13:07 40.5 °F 24.2 °F 30.02 in West 6.2 mph 12.7 mph 52 % 0.00 in 415.0 W/m2 FEW
13:12 41.2 °F 24.9 °F 30.02 in WSW 1.9 mph 12.7 mph 52 % 0.00 in 401.0 W/m2 FEW
13:17 41.4 °F 25.1 °F 30.02 in WSW 1.7 mph 11.5 mph 52 % 0.00 in 396.0 W/m2 FEW
13:22 41.6 °F 24.8 °F 30.02 in WSW 1.7 mph 12.7 mph 51 % 0.00 in 378.0 W/m2 FEW
13:37 41.6 °F 25.3 °F 30.00 in WNW 2.7 mph 12.7 mph 52 % 0.00 in 362.0 W/m2 FEW
13:42 41.4 °F 25.1 °F 30.00 in WSW 3.0 mph 12.7 mph 52 % 0.00 in 350.0 W/m2 FEW
13:47 41.7 °F 25.4 °F 30.00 in WSW 3.1 mph 12.7 mph 52 % 0.00 in 341.0 W/m2 FEW
13:52 41.5 °F 24.7 °F 30.00 in SW 6.3 mph 15.0 mph 51 % 0.00 in 338.0 W/m2 FEW
13:57 41.4 °F 25.1 °F 30.00 in West 2.2 mph 15.0 mph 52 % 0.00 in 327.0 W/m2 FEW
14:02 41.5 °F 24.2 °F 30.00 in SSW 2.9 mph 17.3 mph 50 % 0.00 in 308.0 W/m2 CLR
14:07 41.6 °F 24.8 °F 30.00 in SW 3.6 mph 17.3 mph 51 % 0.00 in 301.0 W/m2 CLR
14:12 41.5 °F 25.2 °F 30.00 in WSW 6.8 mph 13.8 mph 52 % 0.00 in 292.0 W/m2 CLR
14:17 41.5 °F 24.7 °F 30.00 in Calm   13.8 mph 51 % 0.00 in 67.0 W/m2 CLR
14:22 41.3 °F 24.0 °F 30.00 in SSW 6.0 mph 16.1 mph 50 % 0.00 in 230.0 W/m2 CLR
14:27 41.2 °F 24.4 °F 30.00 in SSW 6.0 mph 16.1 mph 51 % 0.00 in 116.0 W/m2 CLR
14:32 40.9 °F 24.1 °F 30.00 in WSW 5.7 mph 15.0 mph 51 % 0.00 in 60.0 W/m2 CLR
14:37 40.5 °F 24.2 °F 30.00 in SW 3.8 mph 15.0 mph 52 % 0.00 in 53.0 W/m2 CLR
14:42 40.3 °F 24.5 °F 30.00 in West 5.6 mph 12.7 mph 53 % 0.00 in 63.0 W/m2 CLR
14:47 40.2 °F 24.4 °F 30.00 in WSW 1.5 mph 12.7 mph 53 % 0.00 in 72.0 W/m2 CLR
14:53 40.5 °F 24.2 °F 30.00 in SW 7.9 mph 15.0 mph 52 % 0.00 in 165.0 W/m2 CLR
14:58 40.9 °F 24.6 °F 30.00 in SW 8.2 mph 15.0 mph 52 % 0.00 in 206.0 W/m2 CLR
15:03 41.1 °F 23.9 °F 30.00 in SW 0.4 mph 15.0 mph 50 % 0.00 in 153.0 W/m2 OVC
15:07 41.3 °F 24.5 °F 30.00 in SSW 5.6 mph 13.8 mph 51 % 0.00 in 109.0 W/m2 OVC
15:13 41.0 °F 24.2 °F 30.00 in SW 0.8 mph 11.5 mph 51 % 0.00 in 83.0 W/m2 OVC
15:18 40.7 °F 24.0 °F 30.00 in WSW 2.1 mph 11.5 mph 51 % 0.00 in 81.0 W/m2 OVC
15:23 40.7 °F 24.4 °F 30.00 in SW 0.6 mph 11.5 mph 52 % 0.00 in 86.0 W/m2 OVC
15:28 40.7 °F 24.0 °F 30.00 in WSW 4.4 mph 11.5 mph 51 % 0.00 in 76.0 W/m2 OVC
15:33 40.7 °F 24.4 °F 30.00 in WSW 4.3 mph 11.5 mph 52 % 0.00 in 67.0 W/m2 OVC
15:38 40.6 °F 24.3 °F 30.00 in WSW 6.3 mph 11.5 mph 52 % 0.00 in 39.0 W/m2 OVC
15:43 40.6 °F 23.9 °F 30.01 in WSW 6.9 mph 11.5 mph 51 % 0.00 in 28.0 W/m2 OVC
15:48 40.6 °F 24.3 °F 30.00 in WSW 3.0 mph 11.5 mph 52 % 0.00 in 30.0 W/m2 OVC
15:53 40.5 °F 23.8 °F 30.00 in WSW 3.9 mph 11.5 mph 51 % 0.00 in 28.0 W/m2 OVC
15:58 40.5 °F 23.8 °F 30.00 in SW 0.6 mph 11.5 mph 51 % 0.00 in 42.0 W/m2 OVC
16:03 40.5 °F 23.8 °F 30.00 in WSW 1.1 mph 12.7 mph 51 % 0.00 in 32.0 W/m2 OVC
16:04 40.5 °F 23.8 °F 30.00 in WSW 4.9 mph 12.7 mph 51 % 0.00 in 30.0 W/m2 OVC
16:09 40.3 °F 23.6 °F 30.00 in WSW 7.5 mph 12.7 mph 51 % 0.00 in 26.0 W/m2 OVC
16:14 40.1 °F 23.9 °F 30.00 in WSW 3.1 mph 11.5 mph 52 % 0.00 in 21.0 W/m2 OVC
16:24 39.8 °F 23.6 °F 30.00 in SSW 7.3 mph 11.5 mph 52 % 0.00 in 9.0 W/m2 OVC
16:29 39.6 °F 23.4 °F 30.00 in WSW 3.1 mph 12.7 mph 52 % 0.00 in 5.0 W/m2 OVC
16:34 39.4 °F 23.7 °F 30.00 in SW 0.8 mph 12.7 mph 53 % 0.00 in 0.0 W/m2 OVC
16:39 39.1 °F 23.8 °F 29.99 in Calm   5.8 mph 54 % 0.00 in 0.0 W/m2 OVC
16:44 38.8 °F 23.6 °F 29.99 in WSW 0.1 mph 3.5 mph 54 % 0.00 in 0.0 W/m2 OVC
16:49 38.5 °F 24.1 °F 29.99 in Calm   1.2 mph 56 % 0.00 in 0.0 W/m2 OVC
16:54 38.2 °F 23.9 °F 29.99 in Calm   1.2 mph 56 % 0.00 in 0.0 W/m2 OVC
16:59 38.1 °F 23.8 °F 29.99 in Calm     56 % 0.00 in 0.0 W/m2 OVC
17:04 38.1 °F 23.8 °F 29.99 in Calm     56 % 0.00 in 0.0 W/m2 SCT
17:09 38.2 °F 23.9 °F 29.99 in Calm     56 % 0.00 in 0.0 W/m2 SCT
17:14 38.2 °F 23.9 °F 29.99 in Calm     56 % 0.00 in 0.0 W/m2 SCT
17:19 38.1 °F 23.8 °F 29.99 in Calm     56 % 0.00 in 0.0 W/m2 SCT
17:24 38.1 °F 23.8 °F 29.99 in Calm     56 % 0.00 in 0.0 W/m2 SCT
17:29 38.0 °F 23.7 °F 30.00 in Calm     56 % 0.00 in 0.0 W/m2 SCT
17:34 37.9 °F 23.6 °F 30.00 in Calm   2.3 mph 56 % 0.00 in 0.0 W/m2 SCT
17:39 37.8 °F 23.5 °F 30.00 in Calm   2.3 mph 56 % 0.00 in 0.0 W/m2 SCT
17:44 37.8 °F 23.5 °F 30.00 in Calm   1.2 mph 56 % 0.00 in 0.0 W/m2 SCT
17:49 37.8 °F 23.5 °F 30.00 in Calm     56 % 0.00 in 0.0 W/m2 SCT
17:54 37.8 °F 23.5 °F 30.00 in Calm     56 % 0.00 in 0.0 W/m2 SCT
17:59 37.6 °F 23.3 °F 30.00 in Calm     56 % 0.00 in 0.0 W/m2 SCT
18:04 37.3 °F 23.4 °F 30.00 in Calm     57 % 0.00 in 0.0 W/m2 OVC
18:09 37.1 °F 23.3 °F 30.00 in Calm     57 % 0.00 in 0.0 W/m2 OVC
18:14 37.1 °F 23.3 °F 30.00 in Calm     57 % 0.00 in 0.0 W/m2 OVC
18:19 37.4 °F 23.5 °F 30.00 in Calm     57 % 0.00 in 0.0 W/m2 OVC
18:24 37.6 °F 23.7 °F 30.01 in Calm     57 % 0.00 in 0.0 W/m2 OVC
18:29 37.8 °F 23.5 °F 30.01 in SW 0.1 mph   56 % 0.00 in 0.0 W/m2 OVC
18:39 38.2 °F 23.9 °F 30.01 in Calm   1.2 mph 56 % 0.00 in 0.0 W/m2 OVC
18:44 38.3 °F 24.0 °F 30.01 in Calm   1.2 mph 56 % 0.00 in 0.0 W/m2 OVC
18:49 38.4 °F 24.1 °F 30.02 in Calm   3.5 mph 56 % 0.00 in 0.0 W/m2 OVC
18:54 38.3 °F 24.4 °F 30.02 in Calm   3.5 mph 57 % 0.00 in 0.0 W/m2 OVC
19:04 38.3 °F 24.4 °F 30.01 in Calm   2.3 mph 57 % 0.00 in 0.0 W/m2 OVC
19:09 37.9 °F 24.4 °F 30.01 in WNW 0.4 mph 2.3 mph 58 % 0.00 in 0.0 W/m2 OVC
19:14 37.8 °F 24.3 °F 30.02 in WNW 2.0 mph 6.9 mph 58 % 0.00 in 0.0 W/m2 OVC
19:19 37.9 °F 24.4 °F 30.02 in WNW 0.1 mph 6.9 mph 58 % 0.00 in 0.0 W/m2 OVC
19:25 38.2 °F 24.7 °F 30.02 in Calm   6.9 mph 58 % 0.00 in 0.0 W/m2 OVC
19:30 38.4 °F 24.5 °F 30.02 in WNW 0.2 mph 8.1 mph 57 % 0.00 in 0.0 W/m2 OVC
19:35 38.5 °F 24.6 °F 30.02 in West 0.2 mph 8.1 mph 57 % 0.00 in 0.0 W/m2 OVC
19:40 38.6 °F 24.7 °F 30.03 in West 4.4 mph 9.2 mph 57 % 0.00 in 0.0 W/m2 OVC
19:45 38.6 °F 25.5 °F 30.02 in West 0.1 mph 9.2 mph 59 % 0.00 in 0.0 W/m2 OVC
19:50 38.4 °F 25.3 °F 30.02 in West 0.5 mph 9.2 mph 59 % 0.00 in 0.0 W/m2 OVC
19:55 38.0 °F 25.3 °F 30.02 in Calm   6.9 mph 60 % 0.00 in 0.0 W/m2 OVC
20:00 37.6 °F 25.7 °F 30.03 in Calm   6.9 mph 62 % 0.00 in 0.0 W/m2 OVC
20:05 37.4 °F 25.6 °F 30.04 in Calm   1.2 mph 62 % 0.00 in 0.0 W/m2 OVC
20:10 37.3 °F 25.8 °F 30.03 in Calm   1.2 mph 63 % 0.00 in 0.0 W/m2 OVC
20:15 37.3 °F 25.8 °F 30.03 in Calm   1.2 mph 63 % 0.00 in 0.0 W/m2 OVC
20:20 37.3 °F 25.8 °F 30.04 in Calm   1.2 mph 63 % 0.00 in 0.0 W/m2 OVC
20:25 37.3 °F 26.2 °F 30.04 in Calm   1.2 mph 64 % 0.00 in 0.0 W/m2 OVC
20:30 37.1 °F 26.0 °F 30.03 in Calm   1.2 mph 64 % 0.00 in 0.0 W/m2 OVC
20:35 36.8 °F 25.8 °F 30.03 in Calm     64 % 0.00 in 0.0 W/m2 OVC
20:40 36.6 °F 25.6 °F 30.03 in Calm     64 % 0.00 in 0.0 W/m2 OVC
20:45 36.6 °F 25.6 °F 30.04 in Calm     64 % 0.00 in 0.0 W/m2 OVC
20:50 36.4 °F 25.7 °F 30.04 in Calm     65 % 0.00 in 0.0 W/m2 OVC
20:55 36.3 °F 26.1 °F 30.04 in Calm     66 % 0.00 in 0.0 W/m2 OVC
21:00 36.4 °F 26.1 °F 30.05 in Calm     66 % 0.00 in 0.0 W/m2 OVC
21:05 36.7 °F 26.4 °F 30.05 in Calm     66 % 0.00 in 0.0 W/m2 BKN
21:10 36.8 °F 26.9 °F 30.05 in West 0.3 mph 9.2 mph 67 % 0.00 in 0.0 W/m2 BKN
21:15 36.7 °F 27.8 °F 30.06 in West 6.3 mph 15.0 mph 70 % 0.00 in 0.0 W/m2 BKN
21:20 36.3 °F 27.8 °F 30.05 in West 6.2 mph 15.0 mph 71 % 0.00 in 0.0 W/m2 BKN
21:25 35.9 °F 28.1 °F 30.05 in Calm   15.0 mph 73 % 0.00 in 0.0 W/m2 BKN
21:30 35.5 °F 28.4 °F 30.05 in Calm   9.2 mph 75 % 0.00 in 0.0 W/m2 BKN
21:35 35.3 °F 28.5 °F 30.06 in Calm     76 % 0.00 in 0.0 W/m2 BKN
21:40 35.2 °F 28.7 °F 30.06 in Calm     77 % 0.00 in 0.0 W/m2 BKN
21:45 35.2 °F 29.0 °F 30.06 in Calm     78 % 0.00 in 0.0 W/m2 BKN
21:50 35.3 °F 29.1 °F 30.06 in WSW 5.0 mph 12.0 mph 78 % 0.00 in 0.0 W/m2 BKN
21:55 35.5 °F 29.0 °F 30.06 in Calm   11.5 mph 77 % 0.00 in 0.0 W/m2 BKN
22:00 35.5 °F 29.0 °F 30.05 in SW 0.5 mph 10.4 mph 77 % 0.00 in 0.0 W/m2 BKN
22:05 35.5 °F 29.0 °F 30.06 in SW 0.1 mph 10.4 mph 77 % 0.00 in 0.0 W/m2 -SN
22:10 35.4 °F 28.9 °F 30.06 in WSW 1.0 mph 10.4 mph 77 % 0.00 in 0.0 W/m2 -SN
22:16 35.4 °F 28.9 °F 30.06 in SW 0.3 mph 4.6 mph 77 % 0.00 in 0.0 W/m2 -SN
22:19 35.4 °F 28.9 °F 30.06 in SW 1.2 mph 4.6 mph 77 % 0.00 in 0.0 W/m2 -SN
22:21 35.4 °F 28.9 °F 30.06 in SW 0.1 mph 6.9 mph 77 % 0.00 in 0.0 W/m2 -SN
22:24 35.4 °F 28.9 °F 30.05 in WSW 0.1 mph 6.9 mph 77 % 0.00 in 0.0 W/m2 -SN
22:26 35.4 °F 28.9 °F 30.05 in Calm   6.9 mph 77 % 0.00 in 0.0 W/m2 -SN
22:31 35.2 °F 28.7 °F 30.06 in WSW 0.2 mph 6.9 mph 77 % 0.00 in 0.0 W/m2 -SN
22:37 35.0 °F 28.5 °F 30.06 in SW 0.1 mph 2.3 mph 77 % 0.00 in 0.0 W/m2 -SN
23:02 34.2 °F 28.1 °F 30.05 in WSW 0.1 mph 5.8 mph 78 % 0.00 in 0.0 W/m2 BKN
23:07 34.2 °F 28.1 °F 30.05 in West 0.1 mph 5.8 mph 78 % 0.00 in 0.0 W/m2 BKN
23:12 34.3 °F 28.2 °F 30.06 in Calm   1.2 mph 78 % 0.00 in 0.0 W/m2 BKN
23:17 34.4 °F 27.9 °F 30.06 in Calm   1.2 mph 77 % 0.00 in 0.0 W/m2 BKN
23:22 34.5 °F 28.0 °F 30.06 in Calm     77 % 0.00 in 0.0 W/m2 BKN
23:32 34.7 °F 27.9 °F 30.06 in Calm     76 % 0.00 in 0.0 W/m2 BKN
23:37 34.6 °F 27.8 °F 30.06 in Calm   1.2 mph 76 % 0.00 in 0.0 W/m2 BKN
23:47 34.2 °F 27.4 °F 30.06 in Calm   1.2 mph 76 % 0.00 in 0.0 W/m2 BKN
23:52 34.0 °F 27.2 °F 30.06 in Calm     76 % 0.00 in 0.0 W/m2 BKN
23:57 33.9 °F 27.4 °F 30.06 in Calm     77 % 0.00 in 0.0 W/m2 BKN
Air Products Campus Weather
Compliments of Weather Underground - 3.25 mb